createdAt,value
2023-11-10T00:00:12.756Z,95952.31
2023-11-10T00:02:15.462Z,95958.25
2023-11-10T00:04:20.571Z,95964.09
2023-11-10T00:06:23.390Z,95960.34
2023-11-10T00:08:28.534Z,95969.69
2023-11-10T00:10:32.387Z,95972.28
2023-11-10T00:12:34.222Z,95967.00
2023-11-10T00:14:40.450Z,95969.78
2023-11-10T00:16:45.111Z,95964.81
2023-11-10T00:18:47.996Z,95972.03
2023-11-10T00:20:50.824Z,95968.84
2023-11-10T00:22:53.682Z,95973.09
2023-11-10T00:24:57.726Z,95974.16
2023-11-10T00:27:00.381Z,95978.13
2023-11-10T00:29:03.227Z,95967.03
2023-11-10T00:31:06.068Z,95961.34
2023-11-10T00:33:08.901Z,95962.41
2023-11-10T00:35:11.848Z,95967.97
2023-11-10T00:37:14.543Z,95960.41
2023-11-10T00:39:20.997Z,95963.34
2023-11-10T00:41:25.014Z,95949.84
2023-11-10T00:43:28.158Z,95948.22
2023-11-10T00:45:29.941Z,95950.84
2023-11-10T00:47:32.631Z,95950.16
2023-11-10T00:49:35.671Z,95944.19
2023-11-10T00:51:38.442Z,95939.06
2023-11-10T00:53:43.107Z,95939.16
2023-11-10T00:55:46.064Z,95935.72
2023-11-10T00:57:50.040Z,95929.78
2023-11-10T00:59:52.701Z,95923.72
2023-11-10T01:01:55.341Z,95928.16
2023-11-10T01:03:59.502Z,95928.16
2023-11-10T01:06:02.236Z,95914.31
2023-11-10T01:08:05.378Z,95915.25
2023-11-10T01:10:09.528Z,95916.34
2023-11-10T01:12:12.270Z,95907.75
2023-11-10T01:14:16.461Z,95913.81
2023-11-10T01:16:19.505Z,95921.53
2023-11-10T01:18:22.256Z,95921.63
2023-11-10T01:20:24.968Z,95926.91
2023-11-10T01:22:28.274Z,95926.06
2023-11-10T01:24:31.061Z,95922.63
2023-11-10T01:26:34.715Z,95914.00
2023-11-10T01:28:38.731Z,95915.75
2023-11-10T01:30:42.963Z,95910.53
2023-11-10T01:32:45.004Z,95904.50
2023-11-10T01:34:47.769Z,95894.94
2023-11-10T01:36:50.425Z,95900.22
2023-11-10T01:38:53.176Z,95901.97
2023-11-10T01:40:55.723Z,95901.97
2023-11-10T01:42:58.377Z,95894.84
2023-11-10T01:45:01.003Z,95895.03
2023-11-10T01:47:06.623Z,95891.56
2023-11-10T01:49:10.910Z,95901.22
2023-11-10T01:51:13.726Z,95906.41
2023-11-10T01:53:16.718Z,95898.63
2023-11-10T01:55:19.936Z,95902.06
2023-11-10T01:57:22.646Z,95887.31
2023-11-10T01:59:25.295Z,95895.09
2023-11-10T02:01:28.131Z,95882.97
2023-11-10T02:03:32.535Z,95891.56
2023-11-10T02:05:36.286Z,95885.47
2023-11-10T02:07:38.974Z,95898.56
2023-11-10T02:09:42.086Z,95897.53
2023-11-10T02:11:45.173Z,95893.34
2023-11-10T02:13:46.927Z,95896.78
2023-11-10T02:15:49.545Z,95889.72
2023-11-10T02:17:52.963Z,95882.53
2023-11-10T02:19:56.975Z,95881.63
2023-11-10T02:21:59.625Z,95878.00
2023-11-10T02:24:06.496Z,95879.25
2023-11-10T02:26:10.544Z,95877.69
2023-11-10T02:28:13.165Z,95871.22
2023-11-10T02:30:15.370Z,95872.03
2023-11-10T02:32:18.109Z,95862.66
2023-11-10T02:34:20.721Z,95860.47
2023-11-10T02:36:23.744Z,95862.31
2023-11-10T02:38:25.474Z,95855.94
2023-11-10T02:40:27.944Z,95862.22
2023-11-10T02:42:31.967Z,95851.09
2023-11-10T02:44:35.076Z,95848.63
2023-11-10T02:46:37.805Z,95850.56
2023-11-10T02:48:40.346Z,95852.41
2023-11-10T02:50:44.961Z,95844.94
2023-11-10T02:52:47.578Z,95851.06
2023-11-10T02:54:50.203Z,95847.63
2023-11-10T02:56:52.856Z,95848.56
2023-11-10T02:58:57.162Z,95845.97
2023-11-10T03:00:59.881Z,95843.19
2023-11-10T03:03:04.169Z,95844.09
2023-11-10T03:05:08.858Z,95837.97
2023-11-10T03:07:11.754Z,95836.22
2023-11-10T03:09:14.710Z,95844.09
2023-11-10T03:11:18.585Z,95828.34
2023-11-10T03:13:21.338Z,95826.16
2023-11-10T03:15:25.356Z,95826.34
2023-11-10T03:19:33.621Z,95827.00
2023-11-10T03:21:36.294Z,95823.81
2023-11-10T03:23:37.960Z,95821.28
2023-11-10T03:25:40.487Z,95817.19
2023-11-10T03:27:42.243Z,95823.97
2023-11-10T03:29:44.900Z,95826.16
2023-11-10T03:31:48.916Z,95825.81
2023-11-10T03:33:50.699Z,95833.56
2023-11-10T03:35:53.520Z,95825.91
2023-11-10T03:37:55.317Z,95832.53
2023-11-10T03:39:57.954Z,95827.81
2023-11-10T03:42:01.753Z,95840.09
2023-11-10T03:44:04.722Z,95829.09
2023-11-10T03:46:06.517Z,95835.13
2023-11-10T03:48:10.507Z,95837.91
2023-11-10T03:50:13.327Z,95835.88
2023-11-10T03:52:15.989Z,95842.16
2023-11-10T03:54:20.006Z,95846.47
2023-11-10T03:56:23.039Z,95837.22
2023-11-10T03:58:24.784Z,95850.16
2023-11-10T04:00:38.792Z,95844.38
2023-11-10T04:02:48.206Z,95848.63
2023-11-10T04:04:51.281Z,95852.56
2023-11-10T04:06:54.169Z,95845.22
2023-11-10T04:08:56.083Z,95848.13
2023-11-10T04:10:59.208Z,95844.69
2023-11-10T04:13:02.041Z,95852.91
2023-11-10T04:15:05.147Z,95849.88
2023-11-10T04:17:08.411Z,95857.63
2023-11-10T04:19:11.277Z,95854.84
2023-11-10T04:21:15.400Z,95858.03
2023-11-10T04:23:18.782Z,95848.41
2023-11-10T04:25:21.423Z,95843.09
2023-11-10T04:27:24.277Z,95839.41
2023-11-10T04:29:26.944Z,95840.25
2023-11-10T04:31:30.151Z,95839.66
2023-11-10T04:33:33.004Z,95832.63
2023-11-10T04:35:36.843Z,95837.63
2023-11-10T04:37:41.500Z,95838.38
2023-11-10T04:39:44.175Z,95832.34
2023-11-10T04:41:47.887Z,95835.88
2023-11-10T04:43:49.609Z,95836.91
2023-11-10T04:45:52.478Z,95841.56
2023-11-10T04:47:55.583Z,95850.28
2023-11-10T04:49:58.246Z,95843.28
2023-11-10T04:52:00.897Z,95845.88
2023-11-10T04:54:05.228Z,95846.09
2023-11-10T04:56:08.225Z,95838.75
2023-11-10T04:58:09.915Z,95850.78
2023-11-10T05:00:14.581Z,95839.31
2023-11-10T05:02:17.422Z,95842.44
2023-11-10T05:04:20.135Z,95846.00
2023-11-10T05:06:31.220Z,95840.97
2023-11-10T05:08:33.958Z,95849.25
2023-11-10T05:10:39.484Z,95848.44
2023-11-10T05:12:42.413Z,95845.25
2023-11-10T05:14:45.107Z,95852.53
2023-11-10T05:16:46.791Z,95860.00
2023-11-10T05:20:54.447Z,95855.06
2023-11-10T05:22:57.156Z,95853.13
2023-11-10T05:24:59.783Z,95851.69
2023-11-10T05:27:03.814Z,95850.00
2023-11-10T05:29:06.425Z,95853.56
2023-11-10T05:31:08.077Z,95849.38
2023-11-10T05:33:10.713Z,95853.56
2023-11-10T05:35:13.576Z,95854.28
2023-11-10T05:37:16.335Z,95852.72
2023-11-10T05:39:18.962Z,95856.66
2023-11-10T05:41:21.666Z,95857.69
2023-11-10T05:43:25.810Z,95855.13
2023-11-10T05:45:28.439Z,95860.28
2023-11-10T05:47:31.583Z,95853.81
2023-11-10T05:49:34.838Z,95846.53
2023-11-10T05:51:37.526Z,95851.72
2023-11-10T05:53:40.230Z,95843.19
2023-11-10T05:55:43.973Z,95850.13
2023-11-10T05:57:45.867Z,95855.31
2023-11-10T05:59:49.848Z,95862.50
2023-11-10T06:01:52.711Z,95861.88
2023-11-10T06:03:55.752Z,95860.34
2023-11-10T06:05:58.593Z,95865.63
2023-11-10T06:08:01.253Z,95872.13
2023-11-10T06:10:05.351Z,95871.50
2023-11-10T06:12:10.860Z,95874.59
2023-11-10T06:14:13.549Z,95863.09
2023-11-10T06:16:18.215Z,95872.59
2023-11-10T06:18:20.909Z,95874.78
2023-11-10T06:20:23.608Z,95869.75
2023-11-10T06:22:27.166Z,95871.59
2023-11-10T06:24:29.998Z,95875.34
2023-11-10T06:26:31.725Z,95877.13
2023-11-10T06:28:36.076Z,95877.34
2023-11-10T06:30:38.787Z,95880.78
2023-11-10T06:32:42.005Z,95880.94
2023-11-10T06:34:44.688Z,95891.00
2023-11-10T06:36:46.885Z,95888.75
2023-11-10T06:38:49.774Z,95891.47
2023-11-10T06:40:52.449Z,95898.50
2023-11-10T06:42:55.263Z,95898.25
2023-11-10T06:44:58.080Z,95902.59
2023-11-10T06:47:00.873Z,95906.44
2023-11-10T06:49:05.044Z,95903.25
2023-11-10T06:51:07.722Z,95899.91
2023-11-10T06:53:11.915Z,95897.75
2023-11-10T06:55:16.343Z,95911.50
2023-11-10T06:57:19.043Z,95903.84
2023-11-10T06:59:27.161Z,95913.94
2023-11-10T07:01:30.302Z,95908.81
2023-11-10T07:03:33.079Z,95915.69
2023-11-10T07:05:37.797Z,95925.78
2023-11-10T07:07:40.945Z,95928.28
2023-11-10T07:09:43.665Z,95925.78
2023-11-10T07:11:46.318Z,95934.34
2023-11-10T07:13:49.192Z,95929.72
2023-11-10T07:15:52.070Z,95932.56
2023-11-10T07:17:54.871Z,95939.44
2023-11-10T07:19:57.473Z,95937.63
2023-11-10T07:22:01.577Z,95939.38
2023-11-10T07:24:04.731Z,95937.28
2023-11-10T07:26:07.384Z,95940.56
2023-11-10T07:28:11.120Z,95945.84
2023-11-10T07:30:13.949Z,95946.75
2023-11-10T07:32:16.753Z,95942.16
2023-11-10T07:34:19.599Z,95942.91
2023-11-10T07:36:22.337Z,95944.09
2023-11-10T07:38:26.726Z,95940.38
2023-11-10T07:40:28.369Z,95943.00
2023-11-10T07:42:30.901Z,95937.31
2023-11-10T07:44:33.536Z,95938.47
2023-11-10T07:46:35.317Z,95950.81
2023-11-10T07:48:38.813Z,95940.66
2023-11-10T07:50:41.841Z,95949.53
2023-11-10T07:52:45.455Z,95945.09
2023-11-10T07:54:57.932Z,95943.19
2023-11-10T07:57:02.140Z,95949.06
2023-11-10T07:59:05.224Z,95933.38
2023-11-10T08:01:10.166Z,95943.03
2023-11-10T08:03:12.858Z,95940.19
2023-11-10T08:05:15.625Z,95942.16
2023-11-10T08:07:18.564Z,95939.66
2023-11-10T08:09:22.329Z,95941.56
2023-11-10T08:11:26.315Z,95943.56
2023-11-10T08:13:29.269Z,95949.38
2023-11-10T08:15:31.913Z,95947.13
2023-11-10T08:17:33.692Z,95952.22
2023-11-10T08:19:36.395Z,95948.31
2023-11-10T08:21:40.967Z,95946.47
2023-11-10T08:23:43.960Z,95951.06
2023-11-10T08:25:46.782Z,95946.03
2023-11-10T08:27:50.865Z,95953.25
2023-11-10T08:29:53.498Z,95954.28
2023-11-10T08:31:55.270Z,95951.03
2023-11-10T08:33:58.225Z,95950.66
2023-11-10T08:35:59.958Z,95951.59
2023-11-10T08:38:02.466Z,95956.03
2023-11-10T08:40:06.858Z,95959.06
2023-11-10T08:42:10.210Z,95955.63
2023-11-10T08:44:14.772Z,95947.66
2023-11-10T08:46:17.889Z,95958.38
2023-11-10T08:48:20.675Z,95957.47
2023-11-10T08:50:23.314Z,95957.13
2023-11-10T08:52:26.927Z,95950.53
2023-11-10T08:54:29.661Z,95949.31
2023-11-10T08:56:31.566Z,95955.97
2023-11-10T08:58:34.313Z,95954.03
2023-11-10T09:00:38.659Z,95952.00
2023-11-10T09:02:42.626Z,95954.88
2023-11-10T09:04:45.545Z,95962.88
2023-11-10T09:06:48.394Z,95961.56
2023-11-10T09:08:51.642Z,95961.72
2023-11-10T09:10:54.264Z,95956.00
2023-11-10T09:12:56.959Z,95956.28
2023-11-10T09:14:59.617Z,95959.38
2023-11-10T09:17:04.697Z,95953.00
2023-11-10T09:19:07.474Z,95944.75
2023-11-10T09:21:10.417Z,95950.81
2023-11-10T09:23:13.081Z,95969.25
2023-11-10T09:25:17.889Z,95942.06
2023-11-10T09:27:20.767Z,95950.28
2023-11-10T09:29:23.610Z,95944.75
2023-11-10T09:31:26.022Z,95952.31
2023-11-10T09:33:30.086Z,95952.31
2023-11-10T09:35:34.149Z,95953.31
2023-11-10T09:37:36.324Z,95955.59
2023-11-10T09:39:39.032Z,95954.28
2023-11-10T09:41:46.542Z,95956.47
2023-11-10T09:43:50.773Z,95959.91
2023-11-10T09:45:56.001Z,95954.00
2023-11-10T09:47:59.952Z,95960.41
2023-11-10T09:50:07.692Z,95973.25
2023-11-10T09:52:12.201Z,95976.22
2023-11-10T09:54:15.687Z,95985.97
2023-11-10T09:56:21.329Z,95975.72
2023-11-10T09:58:23.987Z,95977.69
2023-11-10T10:00:27.404Z,95974.41
2023-11-10T10:02:30.160Z,95977.53
2023-11-10T10:04:33.222Z,95974.06
2023-11-10T10:06:38.018Z,95978.47
2023-11-10T10:08:44.069Z,95981.22
2023-11-10T10:10:47.326Z,95974.44
2023-11-10T10:12:50.239Z,95978.22
2023-11-10T10:14:56.338Z,95973.78
2023-11-10T10:16:59.443Z,95979.06
2023-11-10T10:19:03.972Z,95984.50
2023-11-10T10:21:07.563Z,95977.81
2023-11-10T10:23:11.907Z,95988.13
2023-11-10T10:25:14.506Z,95981.06
2023-11-10T10:27:17.109Z,95985.03
2023-11-10T10:29:19.865Z,95971.50
2023-11-10T10:31:22.571Z,95973.59
2023-11-10T10:33:24.380Z,95974.53
2023-11-10T10:35:27.131Z,95974.84
2023-11-10T10:37:30.591Z,95961.66
2023-11-10T10:39:35.943Z,95955.06
2023-11-10T10:41:40.820Z,95958.34
2023-11-10T10:43:55.167Z,95953.53
2023-11-10T10:46:06.755Z,95961.94
2023-11-10T10:48:10.292Z,95965.78
2023-11-10T10:50:13.708Z,95965.78
2023-11-10T10:52:18.247Z,95946.03
2023-11-10T10:54:22.863Z,95955.09
2023-11-10T10:56:38.756Z,95954.03
2023-11-10T10:58:47.156Z,95948.06
2023-11-10T11:00:49.056Z,95944.13
2023-11-10T11:02:57.498Z,95963.19
2023-11-10T11:05:06.544Z,95953.03
2023-11-10T11:07:24.525Z,95956.53
2023-11-10T11:09:50.170Z,95954.88
2023-11-10T11:12:38.407Z,95942.13
2023-11-10T11:14:47.862Z,95942.28
2023-11-10T11:17:04.553Z,95938.75
2023-11-10T11:19:20.830Z,95933.66
2023-11-10T11:21:25.368Z,95922.13
2023-11-10T11:23:29.553Z,95919.88
2023-11-10T11:25:32.468Z,95916.94
2023-11-10T11:27:38.046Z,95923.47
2023-11-10T11:29:41.976Z,95918.94
2023-11-10T11:31:48.522Z,95922.03
2023-11-10T11:33:53.362Z,95913.81
2023-11-10T11:36:01.649Z,95924.91
2023-11-10T11:38:04.394Z,95915.56
2023-11-10T11:40:10.636Z,95918.84
2023-11-10T11:42:13.876Z,95919.22
2023-11-10T11:44:27.552Z,95918.28
2023-11-10T11:46:35.425Z,95917.41
2023-11-10T11:48:38.721Z,95915.56
2023-11-10T11:50:41.617Z,95914.88
2023-11-10T11:52:46.477Z,95911.34
2023-11-10T11:54:49.252Z,95910.31
2023-11-10T11:56:53.689Z,95914.34
2023-11-10T11:58:56.773Z,95908.22
2023-11-10T12:01:02.117Z,95909.41
2023-11-10T12:03:05.788Z,95904.41
2023-11-10T12:05:14.455Z,95911.88
2023-11-10T12:07:22.123Z,95916.34
2023-11-10T12:09:26.781Z,95897.06
2023-11-10T12:11:30.097Z,95901.44
2023-11-10T12:13:34.898Z,95904.47
2023-11-10T12:15:38.790Z,95905.41
2023-11-10T12:17:46.503Z,95904.47
2023-11-10T12:19:49.460Z,95901.25
2023-11-10T12:21:52.383Z,95899.44
2023-11-10T12:24:04.500Z,95900.44
2023-11-10T12:26:07.210Z,95904.63
2023-11-10T12:28:13.255Z,95897.13
2023-11-10T12:30:16.183Z,95902.69
2023-11-10T12:32:18.926Z,95895.84
2023-11-10T12:34:24.929Z,95884.84
2023-11-10T12:36:31.244Z,95895.34
2023-11-10T12:38:35.119Z,95891.72
2023-11-10T12:40:38.719Z,95893.03
2023-11-10T12:42:40.973Z,95898.50
2023-11-10T12:44:43.675Z,95891.34
2023-11-10T12:46:54.298Z,95891.81
2023-11-10T12:48:58.083Z,95896.00
2023-11-10T12:51:04.307Z,95886.31
2023-11-10T12:53:06.978Z,95893.47
2023-11-10T12:55:11.021Z,95897.47
2023-11-10T12:57:13.777Z,95898.66
2023-11-10T12:59:16.595Z,95900.50
2023-11-10T13:01:20.873Z,95903.78
2023-11-10T13:03:23.623Z,95907.47
2023-11-10T13:05:44.765Z,95900.69
2023-11-10T13:07:48.844Z,95902.16
2023-11-10T13:09:52.634Z,95898.34
2023-11-10T13:11:55.342Z,95897.50
2023-11-10T13:13:58.003Z,95905.50
2023-11-10T13:16:00.741Z,95902.41
2023-11-10T13:18:03.579Z,95895.94
2023-11-10T13:20:09.749Z,95900.28
2023-11-10T13:22:18.435Z,95899.38
2023-11-10T13:24:22.409Z,95907.47
2023-11-10T13:26:26.491Z,95904.56
2023-11-10T13:28:38.935Z,95902.66
2023-11-10T13:30:46.867Z,95904.47
2023-11-10T13:32:49.680Z,95900.72
2023-11-10T13:34:53.568Z,95899.72
2023-11-10T13:36:58.224Z,95897.88
2023-11-10T13:39:01.027Z,95899.44
2023-11-10T13:41:06.117Z,95898.31
2023-11-10T13:43:09.375Z,95905.50
2023-11-10T13:45:13.081Z,95898.59
2023-11-10T13:47:16.088Z,95894.22
2023-11-10T13:49:18.782Z,95894.13
2023-11-10T13:51:21.449Z,95896.84
2023-11-10T13:53:24.836Z,95907.91
2023-11-10T13:55:27.910Z,95892.28
2023-11-10T13:57:34.328Z,95881.00
2023-11-10T13:59:40.759Z,95887.81
2023-11-10T14:01:44.254Z,95889.41
2023-11-10T14:03:47.029Z,95889.66
2023-11-10T14:05:49.891Z,95888.00
2023-11-10T14:07:52.568Z,95886.97
2023-11-10T14:09:54.748Z,95882.94
2023-11-10T14:11:57.508Z,95890.00
2023-11-10T14:14:01.447Z,95885.28
2023-11-10T14:16:06.333Z,95885.97
2023-11-10T14:18:11.947Z,95883.19
2023-11-10T14:20:14.646Z,95876.84
2023-11-10T14:22:17.364Z,95878.22
2023-11-10T14:24:20.834Z,95885.31
2023-11-10T14:26:25.842Z,95882.00
2023-11-10T14:28:28.563Z,95882.06
2023-11-10T14:30:32.593Z,95874.34
2023-11-10T14:32:36.135Z,95882.53
2023-11-10T14:34:40.884Z,95878.16
2023-11-10T14:36:43.704Z,95883.84
2023-11-10T14:40:53.287Z,95885.03
2023-11-10T14:42:56.034Z,95886.03
2023-11-10T14:45:01.484Z,95884.00
2023-11-10T14:47:12.552Z,95878.78
2023-11-10T14:49:15.769Z,95878.59
2023-11-10T14:51:24.038Z,95882.41
2023-11-10T14:53:28.407Z,95873.63
2023-11-10T14:55:30.140Z,95870.03
2023-11-10T14:57:32.669Z,95869.47
2023-11-10T14:59:34.458Z,95870.56
2023-11-10T15:01:40.389Z,95873.44
2023-11-10T15:03:48.820Z,95865.88
2023-11-10T15:05:53.813Z,95868.41
2023-11-10T15:07:56.524Z,95872.31
2023-11-10T15:09:59.209Z,95875.81
2023-11-10T15:12:02.055Z,95880.84
2023-11-10T15:14:06.156Z,95874.34
2023-11-10T15:16:11.088Z,95875.91
2023-11-10T15:18:15.329Z,95870.97
2023-11-10T15:20:20.080Z,95874.91
2023-11-10T15:22:22.734Z,95870.44
2023-11-10T15:24:25.479Z,95866.69
2023-11-10T15:26:28.124Z,95865.88
2023-11-10T15:28:30.802Z,95869.19
2023-11-10T15:30:34.240Z,95870.03
2023-11-10T15:32:37.604Z,95872.91
2023-11-10T15:34:51.447Z,95866.44
2023-11-10T15:36:59.994Z,95864.06
2023-11-10T15:39:10.156Z,95863.50
2023-11-10T15:41:18.797Z,95863.59
2023-11-10T15:43:22.197Z,95857.81
2023-11-10T15:45:25.469Z,95867.84
2023-11-10T15:47:28.160Z,95861.41
2023-11-10T15:49:30.914Z,95860.94
2023-11-10T15:51:41.440Z,95861.50
2023-11-10T15:53:53.332Z,95864.66
2023-11-10T15:55:55.961Z,95869.34
2023-11-10T15:57:58.632Z,95867.94
2023-11-10T16:00:00.406Z,95863.81
2023-11-10T16:02:03.816Z,95869.28
2023-11-10T16:04:08.491Z,95874.53
2023-11-10T16:06:11.239Z,95883.56
2023-11-10T16:08:13.903Z,95888.00
2023-11-10T16:10:18.063Z,95889.91
2023-11-10T16:12:20.914Z,95887.22
2023-11-10T16:14:26.137Z,95889.16
2023-11-10T16:16:29.181Z,95894.53
2023-11-10T16:18:34.127Z,95897.22
2023-11-10T16:20:36.836Z,95896.38
2023-11-10T16:22:41.993Z,95904.25
2023-11-10T16:24:44.700Z,95913.06
2023-11-10T16:26:50.877Z,95898.47
2023-11-10T16:28:53.958Z,95906.34
2023-11-10T16:30:56.678Z,95906.59
2023-11-10T16:33:00.811Z,95904.06
2023-11-10T16:35:03.709Z,95897.28
2023-11-10T16:37:06.421Z,95900.03
2023-11-10T16:39:09.588Z,95898.22
2023-11-10T16:41:15.290Z,95907.09
2023-11-10T16:43:19.942Z,95899.63
2023-11-10T16:45:22.690Z,95898.09
2023-11-10T16:47:26.437Z,95903.47
2023-11-10T16:49:30.079Z,95894.06
2023-11-10T16:51:36.485Z,95897.59
2023-11-10T16:53:40.366Z,95896.03
2023-11-10T16:55:43.072Z,95897.84
2023-11-10T16:57:45.829Z,95895.41
2023-11-10T16:59:49.839Z,95893.47
2023-11-10T17:01:52.762Z,95896.25
2023-11-10T17:03:55.531Z,95897.72
2023-11-10T17:05:59.114Z,95893.84
2023-11-10T17:08:03.342Z,95900.19
2023-11-10T17:10:07.115Z,95902.06
2023-11-10T17:12:10.183Z,95895.59
2023-11-10T17:14:11.847Z,95895.94
2023-11-10T17:16:16.823Z,95893.66
2023-11-10T17:18:19.528Z,95886.03
2023-11-10T17:20:22.872Z,95884.50
2023-11-10T17:22:25.562Z,95883.03
2023-11-10T17:24:28.780Z,95884.16
2023-11-10T17:26:31.419Z,95881.63
2023-11-10T17:28:35.694Z,95881.94
2023-11-10T17:30:38.438Z,95885.13
2023-11-10T17:32:46.291Z,95885.47
2023-11-10T17:34:50.344Z,95889.72
2023-11-10T17:36:53.087Z,95883.00
2023-11-10T17:38:56.347Z,95887.44
2023-11-10T17:41:00.141Z,95884.91
2023-11-10T17:43:03.620Z,95885.00
2023-11-10T17:45:07.683Z,95883.69
2023-11-10T17:47:10.702Z,95889.44
2023-11-10T17:49:13.853Z,95895.00
2023-11-10T17:51:18.136Z,95892.47
2023-11-10T17:53:20.780Z,95889.03
2023-11-10T17:55:23.615Z,95887.28
2023-11-10T17:57:27.220Z,95896.81
2023-11-10T17:59:29.873Z,95893.41
2023-11-10T18:01:32.751Z,95889.88
2023-11-10T18:03:35.532Z,95895.06
2023-11-10T18:05:40.034Z,95889.09
2023-11-10T18:07:42.675Z,95886.66
2023-11-10T18:09:45.357Z,95889.28
2023-11-10T18:11:48.081Z,95888.50
2023-11-10T18:13:53.695Z,95886.84
2023-11-10T18:15:56.360Z,95882.63
2023-11-10T18:17:58.330Z,95877.50
2023-11-10T18:20:01.115Z,95877.69
2023-11-10T18:22:05.680Z,95869.13
2023-11-10T18:24:10.670Z,95873.56
2023-11-10T18:26:12.391Z,95865.84
2023-11-10T18:28:14.975Z,95877.28
2023-11-10T18:30:17.697Z,95866.09
2023-11-10T18:32:21.572Z,95868.72
2023-11-10T18:34:24.891Z,95873.94
2023-11-10T18:36:28.592Z,95869.66
2023-11-10T18:38:35.726Z,95873.78
2023-11-10T18:40:39.231Z,95871.28
2023-11-10T18:42:45.455Z,95869.66
2023-11-10T18:44:47.363Z,95868.81
2023-11-10T18:46:50.073Z,95866.22
2023-11-10T18:48:52.804Z,95868.06
2023-11-10T18:50:54.548Z,95873.31
2023-11-10T18:52:57.042Z,95867.38
2023-11-10T18:55:02.565Z,95866.53
2023-11-10T18:57:06.997Z,95866.47
2023-11-10T18:59:09.804Z,95859.53
2023-11-10T19:01:13.125Z,95856.06
2023-11-10T19:03:15.925Z,95853.47
2023-11-10T19:05:19.637Z,95844.84
2023-11-10T19:07:23.919Z,95846.03
2023-11-10T19:09:26.704Z,95846.81
2023-11-10T19:11:30.750Z,95850.59
2023-11-10T19:13:33.531Z,95842.06
2023-11-10T19:15:36.412Z,95839.63
2023-11-10T19:17:39.232Z,95836.19
2023-11-10T19:19:43.578Z,95838.94
2023-11-10T19:21:46.520Z,95833.59
2023-11-10T19:23:49.194Z,95841.38
2023-11-10T19:25:51.865Z,95844.03
2023-11-10T19:27:56.065Z,95835.84
2023-11-10T19:29:58.756Z,95837.06
2023-11-10T19:32:01.511Z,95831.50
2023-11-10T19:34:04.471Z,95826.81
2023-11-10T19:36:07.626Z,95826.31
2023-11-10T19:38:10.359Z,95820.44
2023-11-10T19:40:14.036Z,95821.97
2023-11-10T19:42:16.680Z,95816.41
2023-11-10T19:44:20.734Z,95810.53
2023-11-10T19:46:23.558Z,95809.56
2023-11-10T19:48:26.289Z,95807.53
2023-11-10T19:50:29.648Z,95808.44
2023-11-10T19:52:32.371Z,95806.22
2023-11-10T19:56:41.473Z,95792.63
2023-11-10T20:02:57.566Z,95792.53
2023-11-10T20:05:00.364Z,95794.53
2023-11-10T20:07:02.069Z,95795.63
2023-11-10T20:09:04.814Z,95788.34
2023-11-10T20:11:07.481Z,95787.44
2023-11-10T20:13:10.149Z,95786.06
2023-11-10T20:15:14.816Z,95789.75
2023-11-10T20:17:19.562Z,95798.31
2023-11-10T20:19:22.212Z,95797.38
2023-11-10T20:21:24.948Z,95791.59
2023-11-10T20:23:27.628Z,95798.22
2023-11-10T20:25:30.379Z,95788.25
2023-11-10T20:27:33.050Z,95793.69
2023-11-10T20:29:36.136Z,95785.81
2023-11-10T20:31:38.865Z,95773.66
2023-11-10T20:33:41.998Z,95784.38
2023-11-10T20:35:44.956Z,95778.59
2023-11-10T20:37:47.603Z,95781.56
2023-11-10T20:39:50.296Z,95784.47
2023-11-10T20:41:53.169Z,95773.50
2023-11-10T20:43:55.811Z,95776.44
2023-11-10T20:45:58.437Z,95781.59
2023-11-10T20:48:01.237Z,95778.94
2023-11-10T20:50:05.785Z,95778.78
2023-11-10T20:52:08.412Z,95771.16
2023-11-10T20:54:11.137Z,95781.38
2023-11-10T20:56:13.884Z,95770.41
2023-11-10T20:58:16.501Z,95776.84
2023-11-10T21:00:24.698Z,95769.81
2023-11-10T21:02:27.742Z,95772.81
2023-11-10T21:04:30.513Z,95768.97
2023-11-10T21:06:34.656Z,95765.59
2023-11-10T21:08:36.706Z,95756.38
2023-11-10T21:10:39.614Z,95745.91
2023-11-10T21:12:43.045Z,95732.16
2023-11-10T21:14:45.823Z,95732.91
2023-11-10T21:16:48.479Z,95725.06
2023-11-10T21:18:51.211Z,95726.53
2023-11-10T21:20:53.907Z,95726.88
2023-11-10T21:22:57.941Z,95729.22
2023-11-10T21:25:00.589Z,95726.13
2023-11-10T21:27:03.300Z,95722.16
2023-11-10T21:29:06.151Z,95721.69
2023-11-10T21:31:09.535Z,95705.41
2023-11-10T21:33:11.417Z,95701.06
2023-11-10T21:35:14.216Z,95705.50
2023-11-10T21:37:17.796Z,95696.28
2023-11-10T21:39:25.034Z,95698.78
2023-11-10T21:41:29.518Z,95690.38
2023-11-10T21:43:32.213Z,95686.16
2023-11-10T21:45:40.072Z,95682.47
2023-11-10T21:47:42.973Z,95676.97
2023-11-10T21:49:48.283Z,95672.34
2023-11-10T21:51:51.132Z,95680.16
2023-11-10T21:53:53.825Z,95671.84
2023-11-10T21:55:57.839Z,95665.41
2023-11-10T21:58:00.538Z,95671.25
2023-11-10T22:00:03.441Z,95677.88
2023-11-10T22:02:06.199Z,95678.47
2023-11-10T22:04:08.905Z,95672.53
2023-11-10T22:06:12.581Z,95663.25
2023-11-10T22:08:15.438Z,95661.56
2023-11-10T22:10:18.432Z,95651.69
2023-11-10T22:12:25.091Z,95645.84
2023-11-10T22:14:28.389Z,95641.81
2023-11-10T22:16:31.807Z,95642.94
2023-11-10T22:18:34.490Z,95643.00
2023-11-10T22:20:36.297Z,95640.63
2023-11-10T22:22:40.084Z,95638.78
2023-11-10T22:24:42.703Z,95641.91
2023-11-10T22:26:46.508Z,95641.34
2023-11-10T22:28:50.577Z,95640.59
2023-11-10T22:30:52.408Z,95639.88
2023-11-10T22:32:55.175Z,95650.84
2023-11-10T22:34:58.196Z,95655.38
2023-11-10T22:37:04.445Z,95641.53
2023-11-10T22:39:10.168Z,95642.63
2023-11-10T22:41:13.077Z,95645.63
2023-11-10T22:43:15.848Z,95653.03
2023-11-10T22:45:20.556Z,95640.03
2023-11-10T22:47:22.379Z,95630.31
2023-11-10T22:49:24.842Z,95635.09
2023-11-10T22:51:27.530Z,95630.66
2023-11-10T22:53:30.466Z,95625.31
2023-11-10T22:55:33.202Z,95620.78
2023-11-10T22:57:36.880Z,95617.34
2023-11-10T22:59:39.676Z,95610.34
2023-11-10T23:01:45.568Z,95619.38
2023-11-10T23:03:47.405Z,95622.34
2023-11-10T23:05:50.164Z,95620.03
2023-11-10T23:07:53.035Z,95617.88
2023-11-10T23:09:55.708Z,95632.97
2023-11-10T23:11:58.446Z,95634.88
2023-11-10T23:14:01.475Z,95626.88
2023-11-10T23:16:04.341Z,95624.00
2023-11-10T23:18:10.513Z,95623.69
2023-11-10T23:20:25.915Z,95618.50
2023-11-10T23:22:33.127Z,95612.16
2023-11-10T23:24:35.944Z,95617.34
2023-11-10T23:26:38.698Z,95619.09
2023-11-10T23:28:41.330Z,95615.31
2023-11-10T23:30:44.094Z,95609.94
2023-11-10T23:32:47.524Z,95606.88
2023-11-10T23:34:51.797Z,95609.69
2023-11-10T23:36:55.344Z,95610.88
2023-11-10T23:38:57.208Z,95614.31
2023-11-10T23:41:01.509Z,95608.63
2023-11-10T23:43:04.263Z,95616.69
2023-11-10T23:45:09.477Z,95606.28
2023-11-10T23:47:12.284Z,95612.28
2023-11-10T23:49:15.006Z,95614.41
2023-11-10T23:51:19.101Z,95619.66
2023-11-10T23:53:21.781Z,95612.47
2023-11-10T23:55:23.563Z,95602.00
2023-11-10T23:57:26.254Z,95600.50
2023-11-10T23:59:29.077Z,95599.50
